createdAt,value
2022-08-01T00:00:15.093Z,24.45
2022-08-01T00:02:44.196Z,24.45
2022-08-01T00:05:13.374Z,24.47
2022-08-01T00:07:42.439Z,24.45
2022-08-01T00:10:13.802Z,24.41
2022-08-01T00:12:46.088Z,24.35
2022-08-01T00:15:18.171Z,24.33
2022-08-01T00:17:47.397Z,24.29
2022-08-01T00:20:17.247Z,24.26
2022-08-01T00:22:46.256Z,24.30
2022-08-01T00:25:15.252Z,24.29
2022-08-01T00:27:45.694Z,24.21
2022-08-01T00:30:16.547Z,24.18
2022-08-01T00:32:45.589Z,24.21
2022-08-01T00:35:14.665Z,24.19
2022-08-01T00:37:43.651Z,24.12
2022-08-01T00:40:13.102Z,24.11
2022-08-01T00:42:43.774Z,24.08
2022-08-01T00:45:14.912Z,24.07
2022-08-01T00:47:43.908Z,24.04
2022-08-01T00:50:13.801Z,24.02
2022-08-01T00:52:43.690Z,23.96
2022-08-01T00:55:21.995Z,23.66
2022-08-01T00:58:02.384Z,23.87
2022-08-01T01:00:52.830Z,23.52
2022-08-01T01:03:58.116Z,23.66
2022-08-01T01:06:28.155Z,23.61
2022-08-01T01:09:30.178Z,23.47
2022-08-01T01:12:09.365Z,23.45
2022-08-01T01:14:47.812Z,23.42
2022-08-01T01:17:49.795Z,23.40
2022-08-01T01:20:14.771Z,23.37
2022-08-01T01:23:02.069Z,23.37
2022-08-01T01:26:04.242Z,23.36
2022-08-01T01:28:37.886Z,23.40
2022-08-01T01:31:11.048Z,23.48
2022-08-01T01:33:47.276Z,23.52
2022-08-01T01:36:19.490Z,23.68
2022-08-01T01:38:49.862Z,23.74
2022-08-01T01:41:20.056Z,23.81
2022-08-01T01:43:50.899Z,23.89
2022-08-01T01:46:28.219Z,24.05
2022-08-01T01:48:59.332Z,24.16
2022-08-01T01:51:29.976Z,24.27
2022-08-01T01:54:00.403Z,24.35
2022-08-01T01:56:32.059Z,24.42
2022-08-01T01:59:03.456Z,24.45
2022-08-01T02:01:58.831Z,24.18
2022-08-01T02:04:29.510Z,24.35
2022-08-01T02:06:59.751Z,24.40
2022-08-01T02:09:30.776Z,24.45
2022-08-01T02:12:09.581Z,24.61
2022-08-01T02:14:41.307Z,24.78
2022-08-01T02:17:14.100Z,24.93
2022-08-01T02:19:43.327Z,25.04
2022-08-01T02:22:16.748Z,25.13
2022-08-01T02:24:52.675Z,25.21
2022-08-01T02:27:29.184Z,25.27
2022-08-01T02:30:02.015Z,25.33
2022-08-01T02:32:34.594Z,25.39
2022-08-01T02:35:05.267Z,25.43
2022-08-01T02:37:41.915Z,25.49
2022-08-01T02:40:16.011Z,25.54
2022-08-01T02:42:48.400Z,25.41
2022-08-01T02:45:20.581Z,25.63
2022-08-01T02:47:52.499Z,25.68
2022-08-01T02:50:22.879Z,25.72
2022-08-01T02:52:53.809Z,25.76
2022-08-01T02:55:24.041Z,25.75
2022-08-01T02:57:56.780Z,25.74
2022-08-01T03:00:30.694Z,25.74
2022-08-01T03:03:04.092Z,25.75
2022-08-01T03:05:35.483Z,25.78
2022-08-01T03:08:05.479Z,25.81
2022-08-01T03:10:43.498Z,25.81
2022-08-01T03:13:13.991Z,25.78
2022-08-01T03:15:44.695Z,25.78
2022-08-01T03:18:17.562Z,25.75
2022-08-01T03:20:48.542Z,25.75
2022-08-01T03:23:19.773Z,25.75
2022-08-01T03:25:54.140Z,25.75
2022-08-01T03:28:24.768Z,25.76
2022-08-01T03:31:01.044Z,25.75
2022-08-01T03:33:31.951Z,25.68
2022-08-01T03:36:04.717Z,25.71
2022-08-01T03:38:38.102Z,25.72
2022-08-01T03:41:14.464Z,25.72
2022-08-01T03:43:49.212Z,25.74
2022-08-01T03:46:25.711Z,25.76
2022-08-01T03:49:01.275Z,25.74
2022-08-01T03:51:31.788Z,25.72
2022-08-01T03:54:03.688Z,25.69
2022-08-01T03:56:34.097Z,25.69
2022-08-01T03:59:05.331Z,25.69
2022-08-01T04:01:36.181Z,25.68
2022-08-01T04:04:07.562Z,25.66
2022-08-01T04:06:39.746Z,25.67
2022-08-01T04:09:13.339Z,25.66
2022-08-01T04:11:43.366Z,25.66
2022-08-01T04:14:12.183Z,25.57
2022-08-01T04:16:41.191Z,25.64
2022-08-01T04:19:11.622Z,25.65
2022-08-01T04:21:40.688Z,25.62
2022-08-01T04:24:14.749Z,25.60
2022-08-01T04:26:47.918Z,25.55
2022-08-01T04:29:20.353Z,25.52
2022-08-01T04:31:51.637Z,25.46
2022-08-01T04:34:25.717Z,25.43
2022-08-01T04:36:57.862Z,25.43
2022-08-01T04:39:29.696Z,25.39
2022-08-01T04:42:00.015Z,25.36
2022-08-01T04:44:32.576Z,25.41
2022-08-01T04:47:02.309Z,25.42
2022-08-01T04:49:33.961Z,25.46
2022-08-01T04:52:24.336Z,25.49
2022-08-01T04:54:53.808Z,25.54
2022-08-01T04:57:22.697Z,25.57
2022-08-01T04:59:57.930Z,25.59
2022-08-01T05:02:29.486Z,25.63
2022-08-01T05:04:59.866Z,25.69
2022-08-01T05:07:28.750Z,25.72
2022-08-01T05:09:57.781Z,25.72
2022-08-01T05:12:26.734Z,25.73
2022-08-01T05:14:55.665Z,25.72
2022-08-01T05:17:24.657Z,25.75
2022-08-01T05:19:53.538Z,25.77
2022-08-01T05:22:26.358Z,25.79
2022-08-01T05:24:55.746Z,25.83
2022-08-01T05:27:26.338Z,25.90
2022-08-01T05:29:57.629Z,25.95
2022-08-01T05:32:26.518Z,26.00
2022-08-01T05:34:55.721Z,26.05
2022-08-01T05:37:26.124Z,26.10
2022-08-01T05:39:55.058Z,26.23
2022-08-01T05:42:23.910Z,26.34
2022-08-01T05:44:53.222Z,26.45
2022-08-01T05:47:22.204Z,26.57
2022-08-01T05:49:51.182Z,26.77
2022-08-01T05:52:20.169Z,26.90
2022-08-01T05:54:50.622Z,27.01
2022-08-01T05:57:19.698Z,27.12
2022-08-01T05:59:48.770Z,27.22
2022-08-01T06:02:17.801Z,27.30
2022-08-01T06:04:46.782Z,27.41
2022-08-01T06:07:15.765Z,27.59
2022-08-01T06:09:44.790Z,27.88
2022-08-01T06:12:15.291Z,28.44
2022-08-01T06:14:44.287Z,29.12
2022-08-01T06:17:13.207Z,29.81
2022-08-01T06:19:42.182Z,30.46
2022-08-01T06:22:11.207Z,31.02
2022-08-01T06:24:40.152Z,31.63
2022-08-01T06:27:22.140Z,32.22
2022-08-01T06:29:54.693Z,32.68
2022-08-01T06:32:27.380Z,32.99
2022-08-01T06:34:57.256Z,33.45
2022-08-01T06:37:26.392Z,33.91
2022-08-01T06:39:55.364Z,34.35
2022-08-01T06:42:24.967Z,34.71
2022-08-01T06:44:55.464Z,34.91
2022-08-01T06:47:24.368Z,35.26
2022-08-01T06:49:53.233Z,35.41
2022-08-01T06:52:22.227Z,35.80
2022-08-01T06:54:51.267Z,36.16
2022-08-01T06:57:20.233Z,36.47
2022-08-01T06:59:51.827Z,36.66
2022-08-01T07:02:25.190Z,37.00
2022-08-01T07:04:54.144Z,37.22
2022-08-01T07:07:23.174Z,37.43
2022-08-01T07:09:52.225Z,37.59
2022-08-01T07:12:22.204Z,37.56
2022-08-01T07:14:51.378Z,37.59
2022-08-01T07:17:21.757Z,37.67
2022-08-01T07:19:52.236Z,37.82
2022-08-01T07:22:23.649Z,37.87
2022-08-01T07:24:54.618Z,38.15
2022-08-01T07:27:26.032Z,38.29
2022-08-01T07:29:55.317Z,38.41
2022-08-01T07:32:25.034Z,38.49
2022-08-01T07:34:55.458Z,38.57
2022-08-01T07:37:42.156Z,38.59
2022-08-01T07:40:14.855Z,38.62
2022-08-01T07:42:46.156Z,38.61
2022-08-01T07:45:15.694Z,38.75
2022-08-01T07:47:44.634Z,38.80
2022-08-01T07:50:15.306Z,38.66
2022-08-01T07:52:44.707Z,38.65
2022-08-01T07:55:16.292Z,38.74
2022-08-01T07:57:46.197Z,38.70
2022-08-01T08:00:16.029Z,38.65
2022-08-01T08:02:45.347Z,39.05
2022-08-01T08:05:15.771Z,38.93
2022-08-01T08:08:07.034Z,38.83
2022-08-01T08:10:36.101Z,38.62
2022-08-01T08:13:05.345Z,38.38
2022-08-01T08:15:34.585Z,38.09
2022-08-01T08:18:03.636Z,37.70
2022-08-01T08:20:34.336Z,37.50
2022-08-01T08:23:41.635Z,37.40
2022-08-01T08:26:12.727Z,37.33
2022-08-01T08:28:41.924Z,37.12
2022-08-01T08:31:25.468Z,37.10
2022-08-01T08:34:00.085Z,37.12
2022-08-01T08:36:31.471Z,37.17
2022-08-01T08:39:01.838Z,37.16
2022-08-01T08:41:37.831Z,37.12
2022-08-01T08:44:10.393Z,37.25
2022-08-01T08:46:45.275Z,37.27
2022-08-01T08:49:16.948Z,37.19
2022-08-01T08:51:51.203Z,37.18
2022-08-01T08:54:30.947Z,37.02
2022-08-01T08:57:02.396Z,36.51
2022-08-01T08:59:31.662Z,36.67
2022-08-01T09:02:01.380Z,36.68
2022-08-01T09:04:30.475Z,36.73
2022-08-01T09:07:00.919Z,36.71
2022-08-01T09:09:29.897Z,36.60
2022-08-01T09:12:00.897Z,36.65
2022-08-01T09:14:31.686Z,36.57
2022-08-01T09:17:07.926Z,36.81
2022-08-01T09:19:42.495Z,36.67
2022-08-01T09:22:14.402Z,36.91
2022-08-01T09:25:02.985Z,36.91
2022-08-01T09:27:32.746Z,36.92
2022-08-01T09:30:11.986Z,36.96
2022-08-01T09:32:57.095Z,36.96
2022-08-01T09:35:31.299Z,37.07
2022-08-01T09:38:19.467Z,37.24
2022-08-01T09:40:58.461Z,37.41
2022-08-01T09:43:30.013Z,37.51
2022-08-01T09:46:01.699Z,37.52
2022-08-01T09:48:30.917Z,37.78
2022-08-01T09:51:09.230Z,37.83
2022-08-01T09:53:52.412Z,37.92
2022-08-01T09:56:23.279Z,38.11
2022-08-01T09:58:59.807Z,38.15
2022-08-01T10:01:36.760Z,38.33
2022-08-01T10:04:10.684Z,38.39
2022-08-01T10:06:40.841Z,38.52
2022-08-01T10:09:11.612Z,38.55
2022-08-01T10:11:41.487Z,38.71
2022-08-01T10:14:10.971Z,38.74
2022-08-01T10:16:40.812Z,38.81
2022-08-01T10:19:15.273Z,38.83
2022-08-01T10:21:58.136Z,38.77
2022-08-01T10:24:35.000Z,38.77
2022-08-01T10:27:09.393Z,38.95
2022-08-01T10:29:46.148Z,39.08
2022-08-01T10:32:29.277Z,39.15
2022-08-01T10:34:58.528Z,39.27
2022-08-01T10:37:28.069Z,39.22
2022-08-01T10:40:27.029Z,39.57
2022-08-01T10:42:48.574Z,39.53
2022-08-01T10:45:18.693Z,39.31
2022-08-01T10:47:54.051Z,39.50
2022-08-01T10:50:30.223Z,39.51
2022-08-01T10:53:16.038Z,39.59
2022-08-01T10:56:02.673Z,39.58
2022-08-01T10:58:39.788Z,39.29
2022-08-01T11:01:20.146Z,39.64
2022-08-01T11:04:15.960Z,39.82
2022-08-01T11:07:07.695Z,40.02
2022-08-01T11:09:47.116Z,40.09
2022-08-01T11:12:24.798Z,40.06
2022-08-01T11:15:29.736Z,40.14
2022-08-01T11:18:02.307Z,39.94
2022-08-01T11:20:34.400Z,40.21
2022-08-01T11:23:29.214Z,40.16
2022-08-01T11:26:28.874Z,40.18
2022-08-01T11:29:22.335Z,40.27
2022-08-01T11:31:53.187Z,40.28
2022-08-01T11:34:22.362Z,40.24
2022-08-01T11:37:09.815Z,40.29
2022-08-01T11:39:39.132Z,40.45
2022-08-01T11:42:26.827Z,40.64
2022-08-01T11:44:57.273Z,40.69
2022-08-01T11:47:47.904Z,40.67
2022-08-01T11:50:38.282Z,40.51
2022-08-01T11:53:11.205Z,40.54
2022-08-01T11:55:51.236Z,40.55
2022-08-01T11:58:29.434Z,40.63
2022-08-01T12:01:02.315Z,40.67
2022-08-01T12:03:34.387Z,40.69
2022-08-01T12:06:03.845Z,40.71
2022-08-01T12:08:37.544Z,40.68
2022-08-01T12:11:07.777Z,40.69
2022-08-01T12:13:44.506Z,40.80
2022-08-01T12:16:15.738Z,40.98
2022-08-01T12:18:45.400Z,41.06
2022-08-01T12:21:14.214Z,40.95
2022-08-01T12:23:43.131Z,40.93
2022-08-01T12:26:29.399Z,40.91
2022-08-01T12:29:01.070Z,40.95
2022-08-01T12:31:38.139Z,41.03
2022-08-01T12:34:29.360Z,41.03
2022-08-01T12:36:59.901Z,40.58
2022-08-01T12:39:35.883Z,40.92
2022-08-01T12:42:11.795Z,40.98
2022-08-01T12:44:41.627Z,41.07
2022-08-01T12:47:13.632Z,41.14
2022-08-01T12:49:45.756Z,41.14
2022-08-01T12:52:14.967Z,41.09
2022-08-01T12:55:09.966Z,41.22
2022-08-01T12:57:42.531Z,41.19
2022-08-01T13:00:14.590Z,41.11
2022-08-01T13:02:45.342Z,40.97
2022-08-01T13:05:15.929Z,41.00
2022-08-01T13:07:47.879Z,40.95
2022-08-01T13:10:26.200Z,41.06
2022-08-01T13:12:57.394Z,41.14
2022-08-01T13:15:32.229Z,41.22
2022-08-01T13:18:04.056Z,41.30
2022-08-01T13:20:36.614Z,41.38
2022-08-01T13:23:18.156Z,41.47
2022-08-01T13:26:06.198Z,41.47
2022-08-01T13:28:37.721Z,41.30
2022-08-01T13:31:08.510Z,41.31
2022-08-01T13:33:46.107Z,41.36
2022-08-01T13:36:28.182Z,41.40
2022-08-01T13:39:14.943Z,41.44
2022-08-01T13:41:44.304Z,41.46
2022-08-01T13:44:13.179Z,41.45
2022-08-01T13:46:49.304Z,41.38
2022-08-01T13:49:22.565Z,41.34
2022-08-01T13:51:52.382Z,41.36
2022-08-01T13:54:21.326Z,41.33
2022-08-01T13:56:50.385Z,41.40
2022-08-01T13:59:19.183Z,41.48
2022-08-01T14:01:48.937Z,41.50
2022-08-01T14:04:18.063Z,41.40
2022-08-01T14:06:48.707Z,41.32
2022-08-01T14:09:24.327Z,41.22
2022-08-01T14:11:53.583Z,41.19
2022-08-01T14:14:22.354Z,41.30
2022-08-01T14:16:51.203Z,41.38
2022-08-01T14:19:23.071Z,41.30
2022-08-01T14:22:09.465Z,41.17
2022-08-01T14:24:38.969Z,41.20
2022-08-01T14:27:09.909Z,41.04
2022-08-01T14:30:00.270Z,40.95
2022-08-01T14:32:28.995Z,40.94
2022-08-01T14:34:58.072Z,41.01
2022-08-01T14:37:31.755Z,41.05
2022-08-01T14:40:05.908Z,41.00
2022-08-01T14:42:36.269Z,41.01
2022-08-01T14:45:05.558Z,40.95
2022-08-01T14:47:34.367Z,40.89
2022-08-01T14:50:04.326Z,40.85
2022-08-01T14:52:34.648Z,40.91
2022-08-01T14:55:03.863Z,40.83
2022-08-01T14:57:32.767Z,40.87
2022-08-01T15:00:01.642Z,40.94
2022-08-01T15:02:30.486Z,40.98
2022-08-01T15:04:59.435Z,40.97
2022-08-01T15:07:28.202Z,40.93
2022-08-01T15:09:58.626Z,40.88
2022-08-01T15:12:35.709Z,40.89
2022-08-01T15:15:16.358Z,40.87
2022-08-01T15:17:45.123Z,40.93
2022-08-01T15:20:14.001Z,40.86
2022-08-01T15:22:42.703Z,40.83
2022-08-01T15:25:13.198Z,40.76
2022-08-01T15:27:42.061Z,40.58
2022-08-01T15:30:11.402Z,40.39
2022-08-01T15:32:40.451Z,40.27
2022-08-01T15:35:11.363Z,40.24
2022-08-01T15:37:43.032Z,40.21
2022-08-01T15:40:14.482Z,40.19
2022-08-01T15:42:43.278Z,40.13
2022-08-01T15:45:37.461Z,40.06
2022-08-01T15:48:03.223Z,40.03
2022-08-01T15:50:32.027Z,40.02
2022-08-01T15:53:00.900Z,40.00
2022-08-01T15:55:31.199Z,39.97
2022-08-01T15:57:59.934Z,39.99
2022-08-01T16:00:33.005Z,39.95
2022-08-01T16:03:08.922Z,39.92
2022-08-01T16:05:42.918Z,39.88
2022-08-01T16:08:12.657Z,39.85
2022-08-01T16:10:43.287Z,39.85
2022-08-01T16:13:12.320Z,39.82
2022-08-01T16:15:41.623Z,39.82
2022-08-01T16:18:13.181Z,39.81
2022-08-01T16:20:45.972Z,39.77
2022-08-01T16:23:16.103Z,39.76
2022-08-01T16:25:46.763Z,39.67
2022-08-01T16:28:15.622Z,39.68
2022-08-01T16:31:00.223Z,39.54
2022-08-01T16:33:43.469Z,39.36
2022-08-01T16:36:24.895Z,39.46
2022-08-01T16:38:54.030Z,39.45
2022-08-01T16:41:24.263Z,39.37
2022-08-01T16:43:54.629Z,39.30
2022-08-01T16:46:25.548Z,39.21
2022-08-01T16:48:54.970Z,39.18
2022-08-01T16:51:23.934Z,39.09
2022-08-01T16:53:52.755Z,39.08
2022-08-01T16:56:21.698Z,39.06
2022-08-01T16:58:51.986Z,39.05
2022-08-01T17:01:58.817Z,38.99
2022-08-01T17:04:10.172Z,38.94
2022-08-01T17:06:39.003Z,38.89
2022-08-01T17:09:09.516Z,38.84
2022-08-01T17:11:38.464Z,38.77
2022-08-01T17:14:08.779Z,38.71
2022-08-01T17:16:37.688Z,38.63
2022-08-01T17:19:07.017Z,38.52
2022-08-01T17:21:38.874Z,38.42
2022-08-01T17:24:11.610Z,38.35
2022-08-01T17:26:44.565Z,38.28
2022-08-01T17:29:14.757Z,38.24
2022-08-01T17:31:43.698Z,38.16
2022-08-01T17:34:12.469Z,38.14
2022-08-01T17:36:41.363Z,38.12
2022-08-01T17:39:12.629Z,38.04
2022-08-01T17:41:41.770Z,37.97
2022-08-01T17:44:10.719Z,37.92
2022-08-01T17:46:40.914Z,37.86
2022-08-01T17:49:10.202Z,37.78
2022-08-01T17:51:39.114Z,37.68
2022-08-01T17:54:10.862Z,37.49
2022-08-01T17:56:44.247Z,37.34
2022-08-01T17:59:14.919Z,37.17
2022-08-01T18:01:45.592Z,37.04
2022-08-01T18:04:14.582Z,36.85
2022-08-01T18:06:58.197Z,36.75
2022-08-01T18:09:28.269Z,36.65
2022-08-01T18:11:57.201Z,36.64
2022-08-01T18:14:40.237Z,36.34
2022-08-01T18:17:11.917Z,36.45
2022-08-01T18:19:40.766Z,36.34
2022-08-01T18:22:28.909Z,36.21
2022-08-01T18:25:08.327Z,35.99
2022-08-01T18:28:19.741Z,35.82
2022-08-01T18:30:27.351Z,35.65
2022-08-01T18:32:57.609Z,35.54
2022-08-01T18:35:31.781Z,35.40
2022-08-01T18:38:16.914Z,35.26
2022-08-01T18:40:46.119Z,35.15
2022-08-01T18:43:14.917Z,35.09
2022-08-01T18:45:43.778Z,35.03
2022-08-01T18:48:15.129Z,34.94
2022-08-01T18:50:43.948Z,34.84
2022-08-01T18:53:12.691Z,34.70
2022-08-01T18:55:42.029Z,34.55
2022-08-01T18:58:12.455Z,34.41
2022-08-01T19:00:46.191Z,34.24
2022-08-01T19:03:17.064Z,33.97
2022-08-01T19:05:46.126Z,33.78
2022-08-01T19:08:14.903Z,33.74
2022-08-01T19:10:44.162Z,33.58
2022-08-01T19:13:13.256Z,33.46
2022-08-01T19:15:42.030Z,33.40
2022-08-01T19:18:10.831Z,33.31
2022-08-01T19:20:43.107Z,33.22
2022-08-01T19:23:25.559Z,33.05
2022-08-01T19:25:58.010Z,33.02
2022-08-01T19:28:29.175Z,32.92
2022-08-01T19:30:59.856Z,32.72
2022-08-01T19:33:30.887Z,32.74
2022-08-01T19:36:02.298Z,32.67
2022-08-01T19:38:32.216Z,32.43
2022-08-01T19:41:03.643Z,32.40
2022-08-01T19:43:36.766Z,32.38
2022-08-01T19:46:08.623Z,32.34
2022-08-01T19:48:53.666Z,32.23
2022-08-01T19:51:33.355Z,32.13
2022-08-01T19:54:06.429Z,31.99
2022-08-01T19:56:40.631Z,31.87
2022-08-01T19:59:13.055Z,31.73
2022-08-01T20:01:41.892Z,31.44
2022-08-01T20:04:11.300Z,31.55
2022-08-01T20:06:41.995Z,31.40
2022-08-01T20:09:10.979Z,31.26
2022-08-01T20:11:40.691Z,31.17
2022-08-01T20:14:09.757Z,31.07
2022-08-01T20:16:39.485Z,30.97
2022-08-01T20:19:08.325Z,30.86
2022-08-01T20:21:37.742Z,30.75
2022-08-01T20:24:11.463Z,30.69
2022-08-01T20:26:41.745Z,30.62
2022-08-01T20:29:13.289Z,30.63
2022-08-01T20:31:44.279Z,30.62
2022-08-01T20:34:16.132Z,30.59
2022-08-01T20:36:48.068Z,30.44
2022-08-01T20:39:28.778Z,30.41
2022-08-01T20:41:59.514Z,30.31
2022-08-01T20:44:32.651Z,30.25
2022-08-01T20:47:05.180Z,30.09
2022-08-01T20:49:35.077Z,29.98
2022-08-01T20:52:11.627Z,29.86
2022-08-01T20:54:43.278Z,29.77
2022-08-01T20:57:17.979Z,29.66
2022-08-01T20:59:55.635Z,29.56
2022-08-01T21:02:42.966Z,29.39
2022-08-01T21:05:13.017Z,29.28
2022-08-01T21:07:48.438Z,29.25
2022-08-01T21:10:20.808Z,29.22
2022-08-01T21:12:55.873Z,29.23
2022-08-01T21:15:31.783Z,29.18
2022-08-01T21:18:05.117Z,29.12
2022-08-01T21:20:35.999Z,29.07
2022-08-01T21:23:12.875Z,29.01
2022-08-01T21:25:44.302Z,28.96
2022-08-01T21:28:15.911Z,28.94
2022-08-01T21:30:53.875Z,28.87
2022-08-01T21:33:26.402Z,28.83
2022-08-01T21:36:01.241Z,28.99
2022-08-01T21:38:34.806Z,28.90
2022-08-01T21:41:08.445Z,28.87
2022-08-01T21:43:39.255Z,28.88
2022-08-01T21:46:08.619Z,28.87
2022-08-01T21:48:38.985Z,28.85
2022-08-01T21:51:19.008Z,28.75
2022-08-01T21:53:54.091Z,28.70
2022-08-01T21:56:33.315Z,28.63
2022-08-01T21:59:11.684Z,28.58
2022-08-01T22:01:52.675Z,28.56
2022-08-01T22:04:29.298Z,28.79
2022-08-01T22:07:00.910Z,28.92
2022-08-01T22:09:31.373Z,29.06
2022-08-01T22:12:05.346Z,29.13
2022-08-01T22:14:35.699Z,29.22
2022-08-01T22:17:04.427Z,29.28
2022-08-01T22:19:44.072Z,29.30
2022-08-01T22:22:44.967Z,29.33
2022-08-01T22:25:05.611Z,29.36
2022-08-01T22:28:06.383Z,29.42
2022-08-01T22:30:29.037Z,29.43
2022-08-01T22:33:15.474Z,29.45
2022-08-01T22:35:45.942Z,29.41
2022-08-01T22:38:15.075Z,29.39
2022-08-01T22:40:50.930Z,29.25
2022-08-01T22:43:30.962Z,29.31
2022-08-01T22:46:16.122Z,29.27
2022-08-01T22:48:50.613Z,29.23
2022-08-01T22:51:33.189Z,29.13
2022-08-01T22:54:09.987Z,29.07
2022-08-01T22:56:40.875Z,28.96
2022-08-01T22:59:16.312Z,28.90
2022-08-01T23:01:50.556Z,28.85
2022-08-01T23:04:33.157Z,28.89
2022-08-01T23:07:07.211Z,28.90
2022-08-01T23:09:53.248Z,28.94
2022-08-01T23:12:26.513Z,29.00
2022-08-01T23:14:58.543Z,29.05
2022-08-01T23:17:29.807Z,29.50
2022-08-01T23:20:00.599Z,29.29
2022-08-01T23:22:32.457Z,29.24
2022-08-01T23:25:04.986Z,29.20
2022-08-01T23:27:57.881Z,29.16
2022-08-01T23:30:32.169Z,29.10
2022-08-01T23:33:01.582Z,29.07
2022-08-01T23:35:31.939Z,29.02
2022-08-01T23:38:04.518Z,28.92
2022-08-01T23:40:34.305Z,28.86
2022-08-01T23:43:03.839Z,28.83
2022-08-01T23:46:02.102Z,28.80
2022-08-01T23:48:23.946Z,28.75
2022-08-01T23:50:54.089Z,28.79
2022-08-01T23:53:22.881Z,28.80
2022-08-01T23:55:52.051Z,28.78
2022-08-01T23:58:23.067Z,28.79
